createdAt,value
2022-09-23T00:02:16.702Z,4.11
2022-09-23T00:04:43.408Z,4.04
2022-09-23T00:07:09.900Z,4.00
2022-09-23T00:09:36.332Z,3.96
2022-09-23T00:12:06.868Z,3.95
2022-09-23T00:14:37.099Z,3.98
2022-09-23T00:17:03.512Z,3.95
2022-09-23T00:19:29.943Z,3.95
2022-09-23T00:21:56.765Z,3.93
2022-09-23T00:24:23.705Z,3.84
2022-09-23T00:26:50.102Z,3.82
2022-09-23T00:29:16.641Z,3.80
2022-09-23T00:31:43.228Z,3.81
2022-09-23T00:34:11.102Z,3.81
2022-09-23T00:36:37.570Z,3.77
2022-09-23T00:39:04.479Z,3.81
2022-09-23T00:41:31.150Z,3.78
2022-09-23T00:44:01.714Z,3.78
2022-09-23T00:46:39.880Z,3.72
2022-09-23T00:49:12.698Z,3.66
2022-09-23T00:51:44.557Z,3.73
2022-09-23T00:54:11.451Z,3.70
2022-09-23T00:56:39.130Z,3.67
2022-09-23T00:59:07.514Z,3.68
2022-09-23T01:01:34.078Z,3.63
2022-09-23T01:04:00.810Z,3.61
2022-09-23T01:06:29.151Z,3.55
2022-09-23T01:08:55.565Z,3.54
2022-09-23T01:11:36.097Z,3.51
2022-09-23T01:14:13.821Z,3.51
2022-09-23T01:17:03.932Z,3.49
2022-09-23T01:19:36.599Z,3.46
2022-09-23T01:22:27.980Z,3.38
2022-09-23T01:25:28.612Z,3.32
2022-09-23T01:28:33.296Z,3.30
2022-09-23T01:31:16.212Z,3.32
2022-09-23T01:33:53.110Z,3.28
2022-09-23T01:36:24.772Z,3.26
2022-09-23T01:39:08.574Z,3.23
2022-09-23T01:41:41.712Z,3.25
2022-09-23T01:44:19.935Z,3.18
2022-09-23T01:46:57.607Z,3.11
2022-09-23T01:49:42.617Z,3.03
2022-09-23T01:52:26.512Z,3.06
2022-09-23T01:55:17.600Z,3.01
2022-09-23T01:57:49.617Z,2.99
2022-09-23T02:00:18.316Z,3.00
2022-09-23T02:03:00.277Z,3.02
2022-09-23T02:05:38.199Z,3.03
2022-09-23T02:08:16.796Z,2.94
2022-09-23T02:11:18.800Z,2.90
2022-09-23T02:13:53.699Z,2.95
2022-09-23T02:16:39.315Z,2.95
2022-09-23T02:19:14.060Z,2.91
2022-09-23T02:21:47.091Z,2.88
2022-09-23T02:24:31.586Z,2.86
2022-09-23T02:27:12.433Z,2.83
2022-09-23T02:29:57.229Z,2.83
2022-09-23T02:32:33.285Z,2.79
2022-09-23T02:35:09.005Z,2.76
2022-09-23T02:37:53.159Z,2.81
2022-09-23T02:40:41.934Z,2.79
2022-09-23T02:43:21.443Z,2.76
2022-09-23T02:45:48.202Z,2.70
2022-09-23T02:48:26.373Z,2.67
2022-09-23T02:50:54.196Z,2.64
2022-09-23T02:53:23.613Z,2.67
2022-09-23T02:55:50.976Z,2.63
2022-09-23T02:58:17.736Z,2.64
2022-09-23T03:01:21.899Z,2.62
2022-09-23T03:04:04.992Z,2.55
2022-09-23T03:06:56.051Z,2.60
2022-09-23T03:09:30.657Z,2.60
2022-09-23T03:12:09.984Z,2.58
2022-09-23T03:15:01.923Z,2.64
2022-09-23T03:18:10.992Z,2.68
2022-09-23T03:20:44.651Z,2.71
2022-09-23T03:23:15.252Z,2.72
2022-09-23T03:25:45.725Z,2.70
2022-09-23T03:28:14.748Z,2.70
2022-09-23T03:30:43.477Z,2.69
2022-09-23T03:33:12.471Z,2.69
2022-09-23T03:36:06.684Z,2.72
2022-09-23T03:38:37.934Z,2.67
2022-09-23T03:41:06.722Z,2.71
2022-09-23T03:43:38.068Z,2.67
2022-09-23T03:46:07.097Z,2.65
2022-09-23T03:48:33.657Z,2.68
2022-09-23T03:51:13.623Z,2.67
2022-09-23T03:53:40.040Z,2.68
2022-09-23T03:56:06.410Z,2.76
2022-09-23T03:58:32.946Z,2.75
2022-09-23T04:00:59.589Z,2.75
2022-09-23T04:03:28.003Z,2.79
2022-09-23T04:05:54.382Z,2.81
2022-09-23T04:08:20.806Z,2.79
2022-09-23T04:10:49.047Z,2.83
2022-09-23T04:13:17.162Z,2.80
2022-09-23T04:15:43.584Z,2.82
2022-09-23T04:18:09.955Z,2.83
2022-09-23T04:20:39.050Z,2.86
2022-09-23T04:23:05.466Z,2.89
2022-09-23T04:25:32.200Z,2.89
2022-09-23T04:27:58.688Z,2.92
2022-09-23T04:30:25.127Z,2.96
2022-09-23T04:32:53.231Z,2.97
2022-09-23T04:35:19.769Z,2.96
2022-09-23T04:37:48.585Z,2.93
2022-09-23T04:40:15.106Z,2.96
2022-09-23T04:42:41.570Z,3.04
2022-09-23T04:45:08.326Z,3.02
2022-09-23T04:47:34.716Z,2.96
2022-09-23T04:50:01.181Z,2.93
2022-09-23T04:52:27.584Z,2.92
2022-09-23T04:54:54.009Z,2.92
2022-09-23T04:57:20.380Z,2.89
2022-09-23T04:59:47.067Z,2.91
2022-09-23T05:02:13.515Z,2.97
2022-09-23T05:04:41.727Z,3.00
2022-09-23T05:07:08.130Z,3.05
2022-09-23T05:09:34.491Z,3.01
2022-09-23T05:12:01.124Z,3.07
2022-09-23T05:14:27.668Z,3.11
2022-09-23T05:16:54.095Z,3.14
2022-09-23T05:19:20.564Z,3.14
2022-09-23T05:21:47.015Z,3.16
2022-09-23T05:24:13.442Z,3.17
2022-09-23T05:26:40.228Z,3.22
2022-09-23T05:29:06.663Z,3.30
2022-09-23T05:31:33.303Z,3.41
2022-09-23T05:34:02.979Z,3.70
2022-09-23T05:36:35.736Z,4.34
2022-09-23T05:39:05.009Z,4.98
2022-09-23T05:41:31.486Z,5.68
2022-09-23T05:43:59.611Z,6.46
2022-09-23T05:46:28.457Z,7.03
2022-09-23T05:49:01.163Z,7.38
2022-09-23T05:51:31.086Z,7.72
2022-09-23T05:53:59.018Z,7.88
2022-09-23T05:56:27.529Z,7.55
2022-09-23T05:58:55.982Z,7.51
2022-09-23T06:01:25.196Z,8.11
2022-09-23T06:03:57.398Z,8.85
2022-09-23T06:06:30.094Z,9.44
2022-09-23T06:08:57.096Z,10.17
2022-09-23T06:11:23.473Z,10.84
2022-09-23T06:13:55.009Z,10.35
2022-09-23T06:16:21.534Z,9.59
2022-09-23T06:18:47.925Z,9.06
2022-09-23T06:21:16.329Z,8.70
2022-09-23T06:23:44.013Z,8.42
2022-09-23T06:26:12.660Z,8.25
2022-09-23T06:28:41.234Z,8.08
2022-09-23T06:31:13.319Z,8.08
2022-09-23T06:33:41.745Z,8.19
2022-09-23T06:36:08.731Z,8.34
2022-09-23T06:38:38.938Z,8.32
2022-09-23T06:41:05.403Z,8.42
2022-09-23T06:43:31.928Z,8.55
2022-09-23T06:46:03.879Z,8.69
2022-09-23T06:48:31.626Z,8.87
2022-09-23T06:51:02.558Z,9.11
2022-09-23T06:53:32.329Z,9.41
2022-09-23T06:56:02.405Z,9.71
2022-09-23T06:58:29.758Z,9.82
2022-09-23T07:01:05.008Z,9.64
2022-09-23T07:03:34.307Z,9.83
2022-09-23T07:06:01.513Z,10.21
2022-09-23T07:08:29.501Z,10.20
2022-09-23T07:10:57.943Z,10.38
2022-09-23T07:13:24.883Z,10.76
2022-09-23T07:15:52.897Z,11.12
2022-09-23T07:18:20.670Z,11.29
2022-09-23T07:20:48.316Z,11.53
2022-09-23T07:23:14.973Z,11.57
2022-09-23T07:25:42.971Z,11.68
2022-09-23T07:28:10.231Z,11.83
2022-09-23T07:30:38.165Z,12.11
2022-09-23T07:33:18.830Z,12.61
2022-09-23T07:35:47.472Z,13.28
2022-09-23T07:38:13.911Z,13.56
2022-09-23T07:40:40.487Z,13.80
2022-09-23T07:43:08.328Z,13.44
2022-09-23T07:45:34.962Z,14.17
2022-09-23T07:48:01.807Z,14.80
2022-09-23T07:50:31.878Z,15.60
2022-09-23T07:52:58.306Z,15.84
2022-09-23T07:55:24.834Z,16.30
2022-09-23T07:57:51.240Z,16.92
2022-09-23T08:00:18.499Z,17.14
2022-09-23T08:02:47.459Z,17.65
2022-09-23T08:05:16.730Z,17.94
2022-09-23T08:07:43.262Z,18.39
2022-09-23T08:10:10.089Z,18.82
2022-09-23T08:12:36.524Z,18.98
2022-09-23T08:15:03.125Z,19.51
2022-09-23T08:17:29.607Z,19.84
2022-09-23T08:19:56.105Z,20.27
2022-09-23T08:22:22.588Z,20.61
2022-09-23T08:24:49.040Z,21.37
2022-09-23T08:27:15.532Z,21.24
2022-09-23T08:29:42.040Z,19.74
2022-09-23T08:32:08.464Z,20.12
2022-09-23T08:34:35.806Z,19.50
2022-09-23T08:37:02.436Z,19.32
2022-09-23T08:39:29.049Z,19.72
2022-09-23T08:42:21.316Z,19.74
2022-09-23T08:44:54.266Z,19.82
2022-09-23T08:47:35.523Z,19.15
2022-09-23T08:50:22.359Z,18.21
2022-09-23T08:52:58.745Z,18.01
2022-09-23T08:55:34.685Z,19.11
2022-09-23T08:58:26.030Z,19.53
2022-09-23T09:01:07.999Z,19.02
2022-09-23T09:03:40.619Z,19.50
2022-09-23T09:06:14.101Z,19.75
2022-09-23T09:08:43.071Z,20.36
2022-09-23T09:11:12.659Z,19.86
2022-09-23T09:13:50.266Z,19.15
2022-09-23T09:17:01.421Z,20.26
2022-09-23T09:19:32.335Z,20.40
2022-09-23T09:21:59.385Z,20.59
2022-09-23T09:24:33.705Z,20.55
2022-09-23T09:27:11.764Z,19.66
2022-09-23T09:29:49.539Z,19.65
2022-09-23T09:32:52.102Z,19.75
2022-09-23T09:35:26.818Z,20.27
2022-09-23T09:37:53.537Z,20.12
2022-09-23T09:40:20.748Z,20.24
2022-09-23T09:42:49.573Z,20.13
2022-09-23T09:45:43.010Z,20.06
2022-09-23T09:48:20.889Z,20.71
2022-09-23T09:50:52.772Z,20.27
2022-09-23T09:53:19.177Z,20.97
2022-09-23T09:55:48.311Z,21.45
2022-09-23T09:58:16.520Z,22.37
2022-09-23T10:00:44.775Z,21.60
2022-09-23T10:03:14.057Z,20.79
2022-09-23T10:05:46.286Z,22.56
2022-09-23T10:08:18.505Z,23.39
2022-09-23T10:10:55.197Z,24.36
2022-09-23T10:13:24.218Z,24.95
2022-09-23T10:15:54.713Z,24.81
2022-09-23T10:18:47.019Z,24.70
2022-09-23T10:21:17.216Z,24.37
2022-09-23T10:23:52.045Z,24.88
2022-09-23T10:26:28.335Z,24.75
2022-09-23T10:28:55.584Z,24.91
2022-09-23T10:31:30.131Z,25.61
2022-09-23T10:34:02.320Z,26.02
2022-09-23T10:36:31.304Z,25.35
2022-09-23T10:39:23.911Z,25.00
2022-09-23T10:42:25.075Z,24.96
2022-09-23T10:45:38.544Z,26.66
2022-09-23T10:48:32.045Z,24.04
2022-09-23T10:50:59.695Z,25.50
2022-09-23T10:53:50.893Z,26.62
2022-09-23T10:56:40.005Z,26.32
2022-09-23T10:59:27.130Z,26.47
2022-09-23T11:02:02.067Z,26.20
2022-09-23T11:04:52.777Z,27.11
2022-09-23T11:07:37.237Z,25.68
2022-09-23T11:10:45.606Z,25.07
2022-09-23T11:13:35.573Z,23.75
2022-09-23T11:16:10.840Z,24.49
2022-09-23T11:19:15.828Z,25.45
2022-09-23T11:21:58.240Z,25.36
2022-09-23T11:24:31.193Z,24.52
2022-09-23T11:27:26.170Z,23.06
2022-09-23T11:30:06.356Z,24.01
2022-09-23T11:32:57.317Z,25.56
2022-09-23T11:36:01.682Z,25.93
2022-09-23T11:38:36.759Z,24.84
2022-09-23T11:41:27.144Z,25.17
2022-09-23T11:44:03.449Z,23.14
2022-09-23T11:46:39.144Z,22.89
2022-09-23T11:49:09.586Z,21.89
2022-09-23T11:51:43.982Z,21.49
2022-09-23T11:54:46.112Z,22.49
2022-09-23T11:57:26.739Z,22.34
2022-09-23T12:00:03.880Z,23.05
2022-09-23T12:03:04.068Z,24.77
2022-09-23T12:05:44.700Z,22.97
2022-09-23T12:08:25.659Z,22.67
2022-09-23T12:11:08.651Z,21.34
2022-09-23T12:14:10.314Z,22.34
2022-09-23T12:16:45.572Z,21.35
2022-09-23T12:19:21.444Z,22.14
2022-09-23T12:22:12.437Z,23.86
2022-09-23T12:24:50.251Z,25.13
2022-09-23T12:27:32.499Z,25.10
2022-09-23T12:30:03.421Z,25.29
2022-09-23T12:32:30.856Z,24.52
2022-09-23T12:34:59.896Z,25.23
2022-09-23T12:37:35.898Z,23.34
2022-09-23T12:40:19.109Z,24.38
2022-09-23T12:42:47.730Z,25.78
2022-09-23T12:45:43.705Z,26.60
2022-09-23T12:48:15.841Z,26.09
2022-09-23T12:50:55.723Z,26.92
2022-09-23T12:53:34.508Z,25.37
2022-09-23T12:56:14.196Z,24.53
2022-09-23T12:58:43.377Z,25.19
2022-09-23T13:01:15.859Z,25.27
2022-09-23T13:04:15.645Z,24.93
2022-09-23T13:06:57.015Z,23.39
2022-09-23T13:09:28.541Z,23.10
2022-09-23T13:12:00.321Z,22.16
2022-09-23T13:14:28.548Z,21.52
2022-09-23T13:16:58.401Z,22.33
2022-09-23T13:19:27.812Z,21.26
2022-09-23T13:21:54.328Z,22.91
2022-09-23T13:24:24.896Z,23.92
2022-09-23T13:26:51.324Z,25.17
2022-09-23T13:29:24.061Z,24.91
2022-09-23T13:31:50.776Z,23.93
2022-09-23T13:34:21.487Z,24.01
2022-09-23T13:36:48.812Z,23.70
2022-09-23T13:39:20.699Z,24.04
2022-09-23T13:41:47.428Z,25.12
2022-09-23T13:44:20.283Z,25.14
2022-09-23T13:46:52.861Z,26.51
2022-09-23T13:49:24.845Z,26.41
2022-09-23T13:51:54.041Z,26.90
2022-09-23T13:54:30.948Z,26.56
2022-09-23T13:56:58.303Z,26.95
2022-09-23T13:59:29.361Z,26.77
2022-09-23T14:02:13.417Z,28.04
2022-09-23T14:04:40.320Z,27.89
2022-09-23T14:07:09.075Z,26.93
2022-09-23T14:09:37.984Z,27.87
2022-09-23T14:12:06.645Z,26.61
2022-09-23T14:14:37.042Z,24.26
2022-09-23T14:17:06.277Z,24.84
2022-09-23T14:19:35.199Z,25.16
2022-09-23T14:22:01.990Z,25.17
2022-09-23T14:24:36.463Z,24.01
2022-09-23T14:27:18.453Z,22.89
2022-09-23T14:29:48.050Z,21.95
2022-09-23T14:32:20.926Z,22.17
2022-09-23T14:35:06.618Z,22.71
2022-09-23T14:37:57.210Z,21.64
2022-09-23T14:40:32.251Z,21.68
2022-09-23T14:43:02.166Z,21.54
2022-09-23T14:45:33.438Z,21.17
2022-09-23T14:48:14.187Z,21.08
2022-09-23T14:50:48.570Z,20.10
2022-09-23T14:53:23.844Z,18.79
2022-09-23T14:56:16.720Z,18.96
2022-09-23T14:59:23.706Z,19.06
2022-09-23T15:01:50.228Z,18.89
2022-09-23T15:04:28.186Z,18.39
2022-09-23T15:06:56.581Z,18.72
2022-09-23T15:09:27.141Z,18.85
2022-09-23T15:11:57.963Z,18.66
2022-09-23T15:14:37.730Z,18.85
2022-09-23T15:17:13.323Z,18.67
2022-09-23T15:19:40.429Z,18.75
2022-09-23T15:22:09.624Z,17.99
2022-09-23T15:24:46.154Z,17.97
2022-09-23T15:27:31.610Z,17.58
2022-09-23T15:30:05.022Z,17.59
2022-09-23T15:32:31.503Z,17.66
2022-09-23T15:34:57.914Z,17.30
2022-09-23T15:37:24.325Z,17.17
2022-09-23T15:39:51.894Z,17.09
2022-09-23T15:42:18.290Z,16.91
2022-09-23T15:44:44.769Z,17.10
2022-09-23T15:47:18.881Z,17.31
2022-09-23T15:49:48.467Z,17.20
2022-09-23T15:52:15.921Z,17.26
2022-09-23T15:54:43.726Z,16.77
2022-09-23T15:57:10.361Z,16.50
2022-09-23T15:59:38.127Z,16.77
2022-09-23T16:02:21.209Z,17.14
2022-09-23T16:04:50.233Z,17.30
2022-09-23T16:07:16.991Z,17.05
2022-09-23T16:09:43.409Z,17.14
2022-09-23T16:12:11.876Z,16.93
2022-09-23T16:14:38.415Z,16.56
2022-09-23T16:17:05.110Z,16.46
2022-09-23T16:19:34.121Z,16.08
2022-09-23T16:22:00.673Z,16.39
2022-09-23T16:24:28.320Z,16.20
2022-09-23T16:26:59.835Z,16.33
2022-09-23T16:29:27.422Z,16.21
2022-09-23T16:31:53.945Z,15.88
2022-09-23T16:34:20.592Z,15.71
2022-09-23T16:36:47.252Z,15.66
2022-09-23T16:39:13.906Z,15.69
2022-09-23T16:41:42.790Z,15.66
2022-09-23T16:44:10.611Z,15.51
2022-09-23T16:46:37.068Z,15.56
2022-09-23T16:49:03.692Z,15.60
2022-09-23T16:51:41.836Z,15.50
2022-09-23T16:54:11.400Z,15.02
2022-09-23T16:56:45.159Z,14.97
2022-09-23T16:59:18.312Z,14.86
2022-09-23T17:02:03.517Z,14.68
2022-09-23T17:04:30.036Z,14.55
2022-09-23T17:06:56.634Z,14.52
2022-09-23T17:09:26.440Z,14.34
2022-09-23T17:12:01.032Z,14.38
2022-09-23T17:14:29.811Z,14.66
2022-09-23T17:16:58.521Z,14.72
2022-09-23T17:19:24.929Z,14.82
2022-09-23T17:21:53.236Z,14.81
2022-09-23T17:24:19.656Z,14.79
2022-09-23T17:26:49.343Z,14.63
2022-09-23T17:29:19.113Z,14.43
2022-09-23T17:31:46.660Z,14.40
2022-09-23T17:34:13.252Z,14.40
2022-09-23T17:36:40.378Z,14.34
2022-09-23T17:39:07.024Z,14.22
2022-09-23T17:41:33.478Z,14.10
2022-09-23T17:44:00.572Z,14.03
2022-09-23T17:46:30.881Z,13.92
2022-09-23T17:48:57.834Z,13.91
2022-09-23T17:51:25.328Z,13.83
2022-09-23T17:53:51.973Z,13.66
2022-09-23T17:56:19.731Z,13.60
2022-09-23T17:58:47.642Z,13.38
2022-09-23T18:01:25.617Z,13.44
2022-09-23T18:03:56.889Z,13.46
2022-09-23T18:06:25.535Z,13.36
2022-09-23T18:08:52.675Z,13.31
2022-09-23T18:11:24.669Z,13.28
2022-09-23T18:13:53.575Z,13.17
2022-09-23T18:16:22.922Z,13.07
2022-09-23T18:18:54.166Z,12.94
2022-09-23T18:21:21.601Z,12.82
2022-09-23T18:23:48.623Z,12.79
2022-09-23T18:26:16.704Z,12.72
2022-09-23T18:28:43.554Z,12.75
2022-09-23T18:31:11.300Z,12.72
2022-09-23T18:33:38.108Z,12.71
2022-09-23T18:36:05.270Z,12.71
2022-09-23T18:38:31.943Z,12.69
2022-09-23T18:41:00.211Z,12.57
2022-09-23T18:43:37.416Z,12.54
2022-09-23T18:46:09.585Z,12.42
2022-09-23T18:48:54.566Z,12.31
2022-09-23T18:51:25.396Z,12.27
2022-09-23T18:53:57.490Z,12.22
2022-09-23T18:56:37.130Z,12.19
2022-09-23T18:59:06.237Z,12.16
2022-09-23T19:01:33.702Z,12.18
2022-09-23T19:04:04.348Z,12.14
2022-09-23T19:06:35.293Z,12.08
2022-09-23T19:09:01.905Z,11.99
2022-09-23T19:11:28.379Z,11.97
2022-09-23T19:13:56.502Z,11.60
2022-09-23T19:16:24.017Z,11.72
2022-09-23T19:18:50.689Z,11.77
2022-09-23T19:21:20.270Z,11.78
2022-09-23T19:23:49.377Z,11.76
2022-09-23T19:26:28.384Z,11.67
2022-09-23T19:28:56.554Z,11.58
2022-09-23T19:31:25.734Z,11.52
2022-09-23T19:33:57.137Z,11.49
2022-09-23T19:36:25.990Z,11.45
2022-09-23T19:38:54.211Z,11.42
2022-09-23T19:41:20.630Z,11.38
2022-09-23T19:43:48.784Z,11.35
2022-09-23T19:46:15.788Z,11.32
2022-09-23T19:48:42.405Z,11.25
2022-09-23T19:51:08.838Z,11.24
2022-09-23T19:53:35.234Z,11.24
2022-09-23T19:56:05.729Z,11.18
2022-09-23T19:58:32.975Z,11.13
2022-09-23T20:00:59.439Z,11.09
2022-09-23T20:03:26.867Z,11.00
2022-09-23T20:05:57.194Z,11.00
2022-09-23T20:08:24.614Z,10.89
2022-09-23T20:10:51.040Z,10.76
2022-09-23T20:13:17.510Z,10.69
2022-09-23T20:15:48.741Z,10.61
2022-09-23T20:18:15.391Z,10.51
2022-09-23T20:20:42.032Z,10.47
2022-09-23T20:23:08.416Z,10.41
2022-09-23T20:25:54.775Z,10.38
2022-09-23T20:28:22.442Z,10.28
2022-09-23T20:30:48.939Z,10.18
2022-09-23T20:33:15.556Z,10.28
2022-09-23T20:35:43.935Z,10.16
2022-09-23T20:38:10.518Z,10.05
2022-09-23T20:40:38.499Z,9.94
2022-09-23T20:43:05.236Z,9.88
2022-09-23T20:45:31.909Z,9.84
2022-09-23T20:48:00.116Z,9.79
2022-09-23T20:50:26.742Z,9.72
2022-09-23T20:52:53.224Z,9.66
2022-09-23T20:55:19.644Z,9.58
2022-09-23T20:57:48.264Z,9.58
2022-09-23T21:00:15.081Z,9.54
2022-09-23T21:02:43.566Z,9.52
2022-09-23T21:05:10.444Z,9.46
2022-09-23T21:07:37.463Z,9.32
2022-09-23T21:10:06.805Z,9.31
2022-09-23T21:12:33.252Z,9.36
2022-09-23T21:14:59.627Z,9.38
2022-09-23T21:17:26.842Z,9.39
2022-09-23T21:19:53.295Z,9.37
2022-09-23T21:22:19.681Z,9.31
2022-09-23T21:25:25.885Z,9.27
2022-09-23T21:27:33.326Z,9.19
2022-09-23T21:30:00.486Z,9.11
2022-09-23T21:32:26.855Z,9.06
2022-09-23T21:34:53.313Z,9.04
2022-09-23T21:37:19.674Z,9.00
2022-09-23T21:40:06.114Z,8.98
2022-09-23T21:42:32.646Z,8.97
2022-09-23T21:44:59.029Z,8.94
2022-09-23T21:47:26.386Z,8.80
2022-09-23T21:49:52.756Z,8.76
2022-09-23T21:52:19.164Z,8.80
2022-09-23T21:54:46.332Z,8.71
2022-09-23T21:57:13.909Z,8.63
2022-09-23T21:59:40.324Z,8.57
2022-09-23T22:02:06.700Z,8.59
2022-09-23T22:04:34.349Z,8.55
2022-09-23T22:07:01.314Z,8.45
2022-09-23T22:09:27.792Z,8.41
2022-09-23T22:12:08.442Z,8.35
2022-09-23T22:14:35.509Z,8.30
2022-09-23T22:17:04.406Z,8.32
2022-09-23T22:19:34.772Z,8.34
2022-09-23T22:22:05.457Z,8.31
2022-09-23T22:24:31.835Z,8.26
2022-09-23T22:26:58.253Z,8.00
2022-09-23T22:29:43.198Z,8.11
2022-09-23T22:32:30.292Z,8.13
2022-09-23T22:34:57.347Z,8.22
2022-09-23T22:37:27.158Z,8.24
2022-09-23T22:39:54.540Z,8.24
2022-09-23T22:42:24.183Z,8.29
2022-09-23T22:44:51.539Z,8.25
2022-09-23T22:47:19.495Z,8.19
2022-09-23T22:49:46.627Z,8.13
2022-09-23T22:52:15.839Z,8.09
2022-09-23T22:54:42.245Z,8.14
2022-09-23T22:57:09.102Z,8.15
2022-09-23T22:59:37.260Z,8.16
2022-09-23T23:02:05.182Z,8.18
2022-09-23T23:04:31.819Z,8.21
2022-09-23T23:06:58.758Z,8.19
2022-09-23T23:09:25.747Z,8.15
2022-09-23T23:11:52.182Z,8.09
2022-09-23T23:14:19.021Z,8.08
2022-09-23T23:16:46.281Z,8.04
2022-09-23T23:19:16.390Z,8.00
2022-09-23T23:21:44.714Z,7.99
2022-09-23T23:24:19.700Z,7.97
2022-09-23T23:26:46.882Z,8.01
2022-09-23T23:29:15.942Z,8.01
2022-09-23T23:31:42.763Z,7.90
2022-09-23T23:34:18.107Z,7.89
2022-09-23T23:36:45.742Z,7.86
2022-09-23T23:39:13.449Z,7.86
2022-09-23T23:41:41.409Z,7.86
2022-09-23T23:44:07.916Z,7.92
2022-09-23T23:46:35.311Z,7.92
2022-09-23T23:49:01.860Z,7.93
2022-09-23T23:51:28.321Z,7.94
2022-09-23T23:53:56.042Z,7.95
2022-09-23T23:56:24.477Z,7.97
2022-09-23T23:58:59.086Z,7.97
